Time;durP1;ratioP1;P1;durP2;ratioP2;P2;SDS_P1;SDS_P2;PMS_P1;PMS_P2;Temp;Humidity;BMP_temperature;BMP_pressure;BME280_temperature;BME280_humidity;BME280_pressure;Samples;Min_cycle;Max_cycle;Signal;HPM_P1;HPM_P2
2022/12/03 00:00:19;;;;;;;12.17;8.90;;;5.00;1.00;;;;;;5072739;28;20172;-71
2022/12/03 00:02:44;;;;;;;11.87;8.43;;;5.00;1.00;;;;;;5081096;28;20576;-72
2022/12/03 00:05:10;;;;;;;16.37;9.33;;;5.00;1.00;;;;;;5092062;28;20459;-72
2022/12/03 00:07:36;;;;;;;13.70;8.90;;;5.00;1.00;;;;;;5084446;28;20201;-72
2022/12/03 00:10:03;;;;;;;17.70;10.07;;;5.00;1.00;;;;;;5072695;28;20177;-72
2022/12/03 00:12:28;;;;;;;15.60;9.10;;;5.00;1.00;;;;;;5074831;28;20187;-71
2022/12/03 00:14:54;;;;;;;12.77;9.60;;;4.90;1.00;;;;;;5069780;28;20454;-73
2022/12/03 00:17:20;;;;;;;13.77;9.40;;;5.00;1.00;;;;;;5072805;28;20652;-71
2022/12/03 00:19:45;;;;;;;12.30;10.60;;;5.00;1.00;;;;;;5078043;28;20267;-71
2022/12/03 00:22:11;;;;;;;13.93;8.83;;;5.10;1.00;;;;;;5092748;28;20162;-71
2022/12/03 00:24:37;;;;;;;14.70;8.90;;;5.00;1.00;;;;;;5088886;28;20546;-72
2022/12/03 00:27:02;;;;;;;22.10;10.40;;;5.00;1.00;;;;;;5082758;28;20278;-72
2022/12/03 00:29:28;;;;;;;15.73;10.63;;;5.00;1.00;;;;;;5096657;28;20567;-73
2022/12/03 00:31:54;;;;;;;20.37;10.07;;;5.00;1.00;;;;;;5093529;28;20171;-74
2022/12/03 00:34:21;;;;;;;14.10;9.30;;;5.00;1.00;;;;;;5095317;28;20197;-73
2022/12/03 00:36:47;;;;;;;13.20;9.73;;;5.00;1.00;;;;;;5094178;28;20190;-73
2022/12/03 00:39:13;;;;;;;13.73;8.83;;;5.00;1.00;;;;;;5096433;28;20402;-71
2022/12/03 00:41:38;;;;;;;12.67;9.20;;;5.00;1.00;;;;;;5092365;28;20766;-72
2022/12/03 00:44:04;;;;;;;14.10;9.43;;;5.00;1.00;;;;;;5075210;28;20189;-72
2022/12/03 00:46:30;;;;;;;17.80;10.80;;;5.10;1.00;;;;;;5077816;28;20200;-73
2022/12/03 00:48:56;;;;;;;15.00;9.73;;;5.00;1.00;;;;;;5094839;28;20201;-73
2022/12/03 00:51:22;;;;;;;12.97;10.60;;;5.10;1.00;;;;;;5095482;28;20262;-72
2022/12/03 00:53:47;;;;;;;14.30;10.50;;;5.00;1.00;;;;;;5074382;28;20688;-72
2022/12/03 00:56:13;;;;;;;15.50;9.97;;;4.90;1.00;;;;;;5075749;28;20239;-73
2022/12/03 00:58:39;;;;;;;15.27;9.60;;;4.90;1.00;;;;;;5093607;28;20182;-72
2022/12/03 01:01:04;;;;;;;16.80;11.10;;;5.00;1.00;;;;;;5096054;28;20564;-71
2022/12/03 01:03:30;;;;;;;17.80;11.10;;;5.00;1.00;;;;;;5077205;28;20503;-71
2022/12/03 01:05:56;;;;;;;15.13;10.40;;;5.10;1.00;;;;;;5073964;28;20190;-71
2022/12/03 01:08:21;;;;;;;18.40;10.40;;;5.10;1.00;;;;;;5089774;28;20180;-73
2022/12/03 01:10:47;;;;;;;18.37;10.97;;;5.10;1.00;;;;;;5095853;28;20175;-71
2022/12/03 01:13:13;;;;;;;17.00;9.83;;;5.00;1.00;;;;;;5077410;28;20180;-73
2022/12/03 01:15:39;;;;;;;16.07;10.10;;;4.90;1.00;;;;;;5074460;28;20296;-71
2022/12/03 01:18:04;;;;;;;15.63;9.57;;;5.00;1.00;;;;;;5089606;28;20608;-72
2022/12/03 01:20:30;;;;;;;17.53;9.83;;;5.10;1.00;;;;;;5094360;28;20170;-72
2022/12/03 01:22:56;;;;;;;16.30;9.83;;;5.10;1.00;;;;;;5081366;28;20177;-71
2022/12/03 01:25:22;;;;;;;12.90;9.40;;;5.00;1.00;;;;;;5073137;28;20531;-73
2022/12/03 01:27:47;;;;;;;13.70;10.10;;;5.00;1.00;;;;;;5077085;28;20202;-71
2022/12/03 01:30:14;;;;;;;15.17;9.73;;;5.00;1.00;;;;;;5075230;28;20401;-73
2022/12/03 01:32:39;;;;;;;14.33;9.90;;;5.00;1.00;;;;;;5087384;28;20181;-72
2022/12/03 01:35:05;;;;;;;17.23;10.60;;;5.00;1.00;;;;;;5094405;28;20446;-72
2022/12/03 01:37:31;;;;;;;13.33;9.20;;;5.00;1.00;;;;;;5082226;28;20614;-72
2022/12/03 01:39:56;;;;;;;17.50;7.80;;;5.00;1.00;;;;;;5075219;28;20508;-71
2022/12/03 01:42:24;;;;;;;14.53;9.63;;;5.00;1.00;;;;;;5084278;28;20165;-73
2022/12/03 01:44:52;;;;;;;12.40;9.77;;;4.90;1.00;;;;;;5094372;28;20166;-71
2022/12/03 01:47:20;;;;;;;12.10;9.20;;;4.90;1.00;;;;;;5085288;28;20484;-71
2022/12/03 01:49:51;;;;;;;15.70;10.10;;;5.00;1.00;;;;;;5073047;28;20960;-71
2022/12/03 01:52:20;;;;;;;13.60;8.93;;;5.00;1.00;;;;;;5091568;28;20437;-73
2022/12/03 01:54:54;;;;;;;15.37;9.20;;;4.90;1.00;;;;;;5094095;28;20952;-72
2022/12/03 01:57:26;;;;;;;13.93;10.27;;;4.90;1.00;;;;;;5077882;28;20448;-71
2022/12/03 01:59:54;;;;;;;14.10;9.40;;;4.80;1.00;;;;;;5073726;28;20765;-72
2022/12/03 02:02:28;;;;;;;18.57;10.30;;;4.90;1.00;;;;;;5089513;28;20494;-72
2022/12/03 02:04:54;;;;;;;13.80;9.10;;;4.90;1.00;;;;;;5092748;28;20399;-72
2022/12/03 02:07:32;;;;;;;18.90;11.43;;;4.90;1.00;;;;;;5077554;28;20440;-72
2022/12/03 02:10:00;;;;;;;13.77;10.10;;;4.90;1.00;;;;;;5073911;28;20399;-71
2022/12/03 02:12:34;;;;;;;14.83;9.43;;;4.90;1.00;;;;;;5089011;28;20423;-73
2022/12/03 02:15:00;;;;;;;16.10;9.97;;;4.80;1.00;;;;;;5093710;28;20442;-74
2022/12/03 02:17:27;;;;;;;17.40;10.10;;;4.90;1.00;;;;;;5077787;28;20447;-72
2022/12/03 02:19:54;;;;;;;15.70;10.17;;;5.00;1.00;;;;;;5074231;28;20890;-72
2022/12/03 02:23:02;;;;;;;17.07;10.10;;;4.90;1.00;;;;;;5077445;28;20416;-71
2022/12/03 02:25:31;;;;;;;16.23;10.07;;;5.00;1.00;;;;;;5061440;28;20463;-71
2022/12/03 02:27:58;;;;;;;19.17;9.90;;;4.90;1.00;;;;;;5072464;28;20431;-73
2022/12/03 02:30:26;;;;;;;19.33;10.87;;;4.80;1.00;;;;;;5074050;28;20476;-71
2022/12/03 02:32:53;;;;;;;16.13;10.73;;;4.90;1.00;;;;;;5094372;28;20395;-71
2022/12/03 02:35:29;;;;;;;14.57;10.00;;;5.00;1.00;;;;;;5091679;28;20877;-72
2022/12/03 02:38:14;;;;;;;16.30;9.80;;;5.10;1.00;;;;;;5094167;28;20418;-73
2022/12/03 02:40:42;;;;;;;16.47;9.93;;;4.90;1.00;;;;;;5085490;28;20506;-72
2022/12/03 02:43:09;;;;;;;18.40;11.03;;;4.90;1.00;;;;;;5073875;28;20400;-72
2022/12/03 02:45:45;;;;;;;19.40;11.30;;;4.90;1.00;;;;;;5072426;28;20422;-73
2022/12/03 02:48:15;;;;;;;20.10;11.90;;;4.80;1.00;;;;;;5073940;28;20403;-72
2022/12/03 02:50:52;;;;;;;16.70;10.83;;;4.80;1.00;;;;;;5082304;28;20466;-71
2022/12/03 02:53:24;;;;;;;17.07;11.03;;;4.90;1.00;;;;;;5092693;28;20932;-71
2022/12/03 02:55:52;;;;;;;17.07;9.90;;;4.80;1.00;;;;;;5081547;28;20528;-73
2022/12/03 02:58:19;;;;;;;13.13;10.23;;;4.70;1.00;;;;;;5072230;28;20416;-72
2022/12/03 03:00:45;;;;;;;20.60;10.43;;;4.80;1.00;;;;;;5082013;28;20411;-73
2022/12/03 03:03:11;;;;;;;14.87;9.43;;;4.80;1.00;;;;;;5093333;28;20480;-72
2022/12/03 03:05:39;;;;;;;13.93;8.93;;;4.80;1.00;;;;;;5084180;28;20416;-71
2022/12/03 03:08:07;;;;;;;16.90;9.60;;;4.90;1.00;;;;;;5073311;28;20402;-73
2022/12/03 03:10:36;;;;;;;13.80;9.10;;;4.90;1.00;;;;;;5078994;28;20416;-72
2022/12/03 03:13:05;;;;;;;15.23;9.50;;;4.80;1.00;;;;;;5092606;28;20408;-72
2022/12/03 03:15:30;;;;;;;18.10;10.60;;;4.90;1.00;;;;;;5087295;28;20460;-72
2022/12/03 03:17:56;;;;;;;18.37;11.13;;;5.00;1.00;;;;;;5073260;28;20427;-72
2022/12/03 03:20:22;;;;;;;14.60;10.03;;;5.10;1.00;;;;;;5073171;28;20174;-73
2022/12/03 03:22:47;;;;;;;15.43;10.23;;;5.20;1.00;;;;;;5071357;28;20169;-72
2022/12/03 03:25:17;;;;;;;14.80;9.17;;;5.30;1.00;;;;;;5087621;28;20205;-71
2022/12/03 03:27:44;;;;;;;19.23;9.13;;;5.20;1.00;;;;;;5093315;28;20181;-72
2022/12/03 03:30:11;;;;;;;14.67;10.17;;;5.30;1.00;;;;;;5078583;28;20440;-72
2022/12/03 03:32:38;;;;;;;13.30;8.90;;;5.30;1.00;;;;;;5073191;28;20393;-71
2022/12/03 03:35:04;;;;;;;15.07;9.43;;;5.30;1.00;;;;;;5075276;28;20487;-73
2022/12/03 03:37:30;;;;;;;13.17;8.63;;;5.20;99.90;;;;;;5071687;28;20956;-73
2022/12/03 03:39:56;;;;;;;16.67;10.17;;;5.20;99.90;;;;;;5071996;28;20435;-73
2022/12/03 03:42:22;;;;;;;13.60;10.20;;;5.20;99.90;;;;;;5070989;28;20417;-72
2022/12/03 03:44:48;;;;;;;18.13;10.33;;;5.20;99.90;;;;;;5084152;28;20180;-72
2022/12/03 03:47:15;;;;;;;22.33;10.20;;;5.20;99.90;;;;;;5091846;28;20430;-71
2022/12/03 03:49:41;;;;;;;10.83;8.50;;;5.10;99.90;;;;;;5077038;28;20875;-71
2022/12/03 03:52:10;;;;;;;17.13;10.13;;;5.10;99.90;;;;;;5075400;28;20416;-72
2022/12/03 03:54:36;;;;;;;19.30;8.60;;;5.00;99.90;;;;;;5071867;28;20459;-71
2022/12/03 03:57:02;;;;;;;15.37;9.93;;;4.90;99.90;;;;;;5080799;28;20955;-71
2022/12/03 03:59:28;;;;;;;12.40;8.70;;;5.00;99.90;;;;;;5092646;28;20398;-72
2022/12/03 04:01:55;;;;;;;12.80;8.37;;;4.90;99.90;;;;;;5085063;28;20426;-72
2022/12/03 04:04:22;;;;;;;16.47;9.10;;;4.90;99.90;;;;;;5076068;28;20406;-73
2022/12/03 04:06:48;;;;;;;18.50;9.83;;;4.70;99.90;;;;;;5077874;28;20436;-72
2022/12/03 04:09:14;;;;;;;15.83;10.17;;;4.70;99.90;;;;;;5076911;28;20879;-72
2022/12/03 04:14:25;;;;;;;14.80;9.10;;;4.60;99.90;;;;;;5095948;28;20850;-72
2022/12/03 04:16:50;;;;;;;11.70;8.17;;;4.60;99.90;;;;;;5089757;28;20439;-73
2022/12/03 04:19:16;;;;;;;12.83;8.77;;;4.60;99.90;;;;;;5075071;28;20777;-71
2022/12/03 04:24:26;;;;;;;14.00;9.93;;;4.60;99.90;;;;;;5095945;28;20172;-73
2022/12/03 04:29:37;;;;;;;13.67;9.03;;;4.60;99.90;;;;;;5088759;28;20206;-71
2022/12/03 04:37:31;;;;;;;18.77;9.60;;;4.60;99.90;;;;;;5095894;28;20784;-73
2022/12/03 04:39:57;;;;;;;11.17;8.07;;;4.60;99.90;;;;;;5087316;28;20419;-71
2022/12/03 04:42:23;;;;;;;16.17;9.73;;;4.60;99.90;;;;;;5075195;28;20178;-72
2022/12/03 04:44:49;;;;;;;14.20;9.77;;;4.70;99.90;;;;;;5082219;28;20190;-72
2022/12/03 04:47:17;;;;;;;14.20;8.37;;;4.70;99.90;;;;;;5096357;28;20661;-71
2022/12/03 04:49:48;;;;;;;15.27;9.43;;;4.70;99.90;;;;;;5085117;28;20532;-71
2022/12/03 04:52:18;;;;;;;14.03;9.00;;;4.60;99.90;;;;;;5074678;28;20486;-71
2022/12/03 04:54:44;;;;;;;14.23;9.10;;;4.50;99.90;;;;;;5084177;28;20451;-73
2022/12/03 04:57:11;;;;;;;14.33;8.10;;;4.50;99.90;;;;;;5095412;28;20503;-71
2022/12/03 04:59:37;;;;;;;15.47;8.73;;;4.60;99.90;;;;;;5088061;28;20449;-71
2022/12/03 05:02:04;;;;;;;15.00;8.87;;;4.50;99.90;;;;;;5075903;28;20430;-73
2022/12/03 05:04:30;;;;;;;10.73;8.60;;;4.40;99.90;;;;;;5078365;28;20919;-71
2022/12/03 05:06:56;;;;;;;15.00;7.87;;;4.50;99.90;;;;;;5075559;28;20426;-71
2022/12/03 05:09:21;;;;;;;14.80;9.00;;;4.50;99.90;;;;;;5075896;28;20420;-72
2022/12/03 05:11:47;;;;;;;14.13;8.70;;;4.50;99.90;;;;;;5075489;28;20765;-72
2022/12/03 05:14:13;;;;;;;10.90;8.83;;;4.60;99.90;;;;;;5078969;28;20292;-72
2022/12/03 05:16:39;;;;;;;12.67;8.30;;;4.60;99.90;;;;;;5095527;28;20221;-72
2022/12/03 05:19:06;;;;;;;15.20;8.73;;;4.60;99.90;;;;;;5090616;28;20170;-72
2022/12/03 05:21:32;;;;;;;14.63;10.20;;;4.60;99.90;;;;;;5075421;28;20407;-72
2022/12/03 05:23:58;;;;;;;16.97;8.50;;;4.60;99.90;;;;;;5077614;28;20426;-73
2022/12/03 05:26:23;;;;;;;16.47;9.70;;;4.50;99.90;;;;;;5095540;28;20265;-72
2022/12/03 05:28:49;;;;;;;13.40;8.20;;;4.50;99.90;;;;;;5092766;28;20628;-73
2022/12/03 05:31:15;;;;;;;10.93;8.50;;;4.50;99.90;;;;;;5075259;28;20625;-73
2022/12/03 05:33:41;;;;;;;12.40;8.53;;;4.60;99.90;;;;;;5072285;28;21123;-71
2022/12/03 05:36:07;;;;;;;13.23;8.60;;;4.60;99.90;;;;;;5095040;28;20435;-73
2022/12/03 05:38:33;;;;;;;16.67;11.10;;;4.50;99.90;;;;;;5095575;28;20623;-71
2022/12/03 05:40:59;;;;;;;13.17;9.07;;;4.40;99.90;;;;;;5075408;28;20414;-72
2022/12/03 05:43:25;;;;;;;11.37;8.33;;;4.40;99.90;;;;;;5073781;28;20182;-72
2022/12/03 05:45:50;;;;;;;18.20;10.10;;;4.50;99.90;;;;;;5089683;28;20179;-72
2022/12/03 05:48:16;;;;;;;18.30;10.33;;;4.50;99.90;;;;;;5095143;28;20495;-73
2022/12/03 05:50:44;;;;;;;13.80;8.47;;;4.50;99.90;;;;;;5093294;28;20169;-74
2022/12/03 05:53:11;;;;;;;14.87;9.63;;;4.40;99.90;;;;;;5094905;28;20486;-74
2022/12/03 05:55:37;;;;;;;14.90;8.03;;;4.30;99.90;;;;;;5076980;28;20448;-73
2022/12/03 05:58:03;;;;;;;12.57;9.10;;;4.30;99.90;;;;;;5074759;28;20443;-72
2022/12/03 06:00:32;;;;;;;15.17;9.97;;;4.30;99.90;;;;;;5074786;28;20429;-71
2022/12/03 06:02:58;;;;;;;17.23;10.13;;;4.20;99.90;;;;;;5074673;28;20893;-72
2022/12/03 06:05:27;;;;;;;19.30;9.50;;;4.30;99.90;;;;;;5086922;28;20423;-73
2022/12/03 06:07:53;;;;;;;15.60;11.90;;;4.30;99.90;;;;;;5094396;28;20423;-74
2022/12/03 06:10:22;;;;;;;14.90;9.40;;;4.30;99.90;;;;;;5080852;28;20430;-72
2022/12/03 06:12:47;;;;;;;13.50;9.03;;;4.30;99.90;;;;;;5074433;28;20172;-73
2022/12/03 06:15:14;;;;;;;13.83;8.77;;;4.30;99.90;;;;;;5076768;28;20465;-72
2022/12/03 06:17:40;;;;;;;18.83;9.10;;;4.20;99.90;;;;;;5072932;28;20200;-73
2022/12/03 06:20:08;;;;;;;14.53;10.20;;;4.20;99.90;;;;;;5074504;28;20427;-72
2022/12/03 06:22:33;;;;;;;18.20;9.47;;;4.20;99.90;;;;;;5074408;28;20399;-71
2022/12/03 06:24:59;;;;;;;18.43;9.70;;;4.20;99.90;;;;;;5072134;28;20946;-72
2022/12/03 06:27:25;;;;;;;14.27;9.23;;;4.20;99.90;;;;;;5073582;28;20225;-72
2022/12/03 06:29:50;;;;;;;15.17;8.20;;;4.20;99.90;;;;;;5074278;28;20191;-71
2022/12/03 06:32:16;;;;;;;14.00;9.50;;;4.20;99.90;;;;;;5074149;28;20254;-72
2022/12/03 06:34:42;;;;;;;10.77;9.07;;;4.30;99.90;;;;;;5080842;28;20204;-72
2022/12/03 06:37:08;;;;;;;16.10;9.30;;;4.30;99.90;;;;;;5092911;28;20191;-72
2022/12/03 06:39:33;;;;;;;14.80;9.40;;;4.30;99.90;;;;;;5094229;28;20245;-71
2022/12/03 06:41:59;;;;;;;13.57;10.20;;;4.30;99.90;;;;;;5093913;28;20619;-73
2022/12/03 06:44:25;;;;;;;15.07;10.13;;;4.40;99.90;;;;;;5092822;28;20179;-72
2022/12/03 06:46:51;;;;;;;18.20;10.93;;;4.40;99.90;;;;;;5094009;28;20745;-73
2022/12/03 06:49:16;;;;;;;15.80;9.17;;;4.30;99.90;;;;;;5094181;28;20239;-71
2022/12/03 06:51:42;;;;;;;15.23;9.53;;;4.30;99.90;;;;;;5093762;28;20507;-73
2022/12/03 06:54:08;;;;;;;14.97;10.07;;;4.30;99.90;;;;;;5093133;28;20451;-72
2022/12/03 06:56:34;;;;;;;20.00;10.10;;;4.30;99.90;;;;;;5093996;28;20576;-71
2022/12/03 06:58:59;;;;;;;14.10;10.73;;;4.30;99.90;;;;;;5092537;28;20218;-71
2022/12/03 07:01:25;;;;;;;12.83;9.67;;;4.20;99.90;;;;;;5093470;28;20793;-72
2022/12/03 07:03:51;;;;;;;15.20;11.23;;;4.30;99.90;;;;;;5091502;28;20641;-73
2022/12/03 07:06:17;;;;;;;15.77;10.10;;;4.30;99.90;;;;;;5092547;28;20207;-73
2022/12/03 07:08:42;;;;;;;18.30;10.80;;;4.30;99.90;;;;;;5092406;28;20173;-70
2022/12/03 07:13:53;;;;;;;17.33;10.80;;;4.10;99.90;;;;;;5092733;28;20255;-72
2022/12/03 07:16:18;;;;;;;17.80;9.60;;;3.90;99.90;;;;;;5091924;28;20521;-71
2022/12/03 07:18:45;;;;;;;18.33;10.03;;;3.80;99.90;;;;;;5092146;28;20163;-72
2022/12/03 07:21:10;;;;;;;16.27;10.40;;;3.60;99.90;;;;;;5086525;28;20216;-72
2022/12/03 07:23:36;;;;;;;16.07;10.50;;;3.50;99.90;;;;;;5072743;28;20394;-76
2022/12/03 07:26:02;;;;;;;15.90;11.40;;;3.40;99.90;;;;;;5077021;28;20186;-71
2022/12/03 07:28:27;;;;;;;19.40;10.97;;;3.40;99.90;;;;;;5092068;28;20557;-70
2022/12/03 07:30:53;;;;;;;15.33;8.87;;;3.40;99.90;;;;;;5090672;28;20178;-72
2022/12/03 07:33:19;;;;;;;16.60;9.37;;;3.40;99.90;;;;;;5071742;28;20201;-75
2022/12/03 07:35:44;;;;;;;15.33;10.30;;;3.40;99.90;;;;;;5070700;28;20282;-71
2022/12/03 07:38:10;;;;;;;17.13;9.67;;;3.30;99.90;;;;;;5073041;28;20500;-70
2022/12/03 07:40:36;;;;;;;18.20;10.17;;;3.20;99.90;;;;;;5071768;28;20171;-71
2022/12/03 07:43:01;;;;;;;15.13;8.27;;;3.30;99.90;;;;;;5071956;28;20172;-70
2022/12/03 07:45:27;;;;;;;19.20;10.50;;;3.30;99.90;;;;;;5088803;28;20173;-72
2022/12/03 07:47:53;;;;;;;15.77;10.37;;;3.30;99.90;;;;;;5089864;28;20205;-70
2022/12/03 07:50:18;;;;;;;16.77;9.10;;;3.20;99.90;;;;;;5071447;28;20190;-72
2022/12/03 07:52:44;;;;;;;18.20;10.00;;;3.20;99.90;;;;;;5073756;28;20224;-72
2022/12/03 07:55:12;;;;;;;20.20;9.17;;;3.20;99.90;;;;;;5090777;28;20669;-72
2022/12/03 07:57:38;;;;;;;20.00;9.50;;;3.30;99.90;;;;;;5093001;28;20191;-71
2022/12/03 08:00:04;;;;;;;20.27;11.27;;;3.30;99.90;;;;;;5072524;28;20413;-72
2022/12/03 08:02:30;;;;;;;23.57;11.80;;;3.40;99.90;;;;;;5072736;28;20904;-74
2022/12/03 08:04:56;;;;;;;19.87;11.33;;;3.40;99.90;;;;;;5072554;28;20479;-71
2022/12/03 08:07:22;;;;;;;19.87;10.70;;;3.50;99.90;;;;;;5079812;28;20562;-72
2022/12/03 08:09:49;;;;;;;16.03;10.30;;;3.60;99.90;;;;;;5093084;28;20409;-71
2022/12/03 08:12:38;;;;;;;15.27;9.80;;;3.50;99.90;;;;;;5086031;28;20412;-72
2022/12/03 08:15:26;;;;;;;14.57;10.90;;;3.50;99.90;;;;;;5071723;28;20444;-72
2022/12/03 08:17:57;;;;;;;16.50;11.40;;;3.70;99.90;;;;;;5082926;28;20490;-72
2022/12/03 08:20:27;;;;;;;13.07;10.07;;;3.70;99.90;;;;;;5092719;28;20831;-72
2022/12/03 08:22:54;;;;;;;16.63;11.03;;;3.70;99.90;;;;;;5082051;28;20904;-72
2022/12/03 08:25:21;;;;;;;15.90;10.13;;;3.70;99.90;;;;;;5071825;28;20541;-73
2022/12/03 08:27:47;;;;;;;18.63;9.27;;;3.80;99.90;;;;;;5077345;28;20431;-72
2022/12/03 08:30:14;;;;;;;18.47;9.77;;;3.70;99.90;;;;;;5079684;28;20415;-72
2022/12/03 08:32:40;;;;;;;16.20;10.43;;;3.70;99.90;;;;;;5072594;28;20400;-72
2022/12/03 08:35:29;;;;;;;17.00;10.10;;;3.80;99.90;;;;;;5076958;28;20462;-72
2022/12/03 08:38:15;;;;;;;24.90;11.03;;;3.80;99.90;;;;;;5081294;28;20450;-72
2022/12/03 08:40:42;;;;;;;18.60;11.97;;;3.90;99.90;;;;;;5082441;28;20426;-73
2022/12/03 08:43:30;;;;;;;17.03;11.00;;;3.80;99.90;;;;;;5092635;28;20912;-72
2022/12/03 08:45:57;;;;;;;19.03;11.50;;;3.80;99.90;;;;;;5092048;28;20514;-72
2022/12/03 08:48:37;;;;;;;20.80;10.83;;;3.80;99.90;;;;;;5093487;28;20408;-72
2022/12/03 08:51:20;;;;;;;15.17;9.83;;;3.70;99.90;;;;;;5096307;28;20756;-72
2022/12/03 08:53:51;;;;;;;18.83;11.10;;;3.80;99.90;;;;;;5095081;28;20408;-72
2022/12/03 08:56:23;;;;;;;20.10;11.80;;;3.90;99.90;;;;;;5095134;28;20435;-72
2022/12/03 08:59:18;;;;;;;22.40;10.67;;;3.90;99.90;;;;;;5096041;28;20457;-72
2022/12/03 09:01:46;;;;;;;16.27;11.07;;;3.70;99.90;;;;;;5094811;28;20928;-72
2022/12/03 09:04:22;;;;;;;15.00;10.40;;;3.50;99.90;;;;;;5094164;28;20420;-72
2022/12/03 09:06:48;;;;;;;13.60;10.17;;;3.40;99.90;;;;;;5094627;28;20516;-72
2022/12/03 09:09:14;;;;;;;21.40;11.10;;;3.40;99.90;;;;;;5094994;28;20416;-72
2022/12/03 09:11:42;;;;;;;15.33;10.13;;;3.30;99.90;;;;;;5094889;28;20400;-73
2022/12/03 09:14:08;;;;;;;12.93;10.00;;;3.20;99.90;;;;;;5094532;28;20880;-73
2022/12/03 09:16:34;;;;;;;23.87;12.27;;;3.20;99.90;;;;;;5095905;28;20780;-72
2022/12/03 09:19:00;;;;;;;21.50;10.80;;;3.20;99.90;;;;;;5095790;28;20392;-73
2022/12/03 09:21:25;;;;;;;18.30;12.10;;;3.30;99.90;;;;;;5094358;28;20415;-73
2022/12/03 09:23:51;;;;;;;18.73;9.80;;;3.20;99.90;;;;;;5093806;28;20480;-72
2022/12/03 09:26:17;;;;;;;15.27;10.47;;;3.10;99.90;;;;;;5094540;28;20193;-73
2022/12/03 09:28:42;;;;;;;19.50;11.13;;;3.10;99.90;;;;;;5095702;28;20190;-73
2022/12/03 09:31:08;;;;;;;18.43;12.23;;;3.10;99.90;;;;;;5095051;28;20186;-73
2022/12/03 09:33:34;;;;;;;16.03;10.47;;;3.10;99.90;;;;;;5095422;28;20169;-72
2022/12/03 09:36:00;;;;;;;20.17;10.43;;;3.10;99.90;;;;;;5094037;28;20671;-72
2022/12/03 09:38:25;;;;;;;19.70;12.30;;;3.00;99.90;;;;;;5094044;28;20490;-72
2022/12/03 09:40:52;;;;;;;15.47;9.63;;;3.00;99.90;;;;;;5095394;28;20162;-71
2022/12/03 09:43:19;;;;;;;20.53;13.00;;;3.00;99.90;;;;;;5095278;28;20170;-76
2022/12/03 09:45:46;;;;;;;21.30;11.90;;;3.00;99.90;;;;;;5093301;28;20420;-71
2022/12/03 09:48:15;;;;;;;18.17;11.37;;;3.00;1.00;;;;;;5094723;28;20416;-72
2022/12/03 09:50:42;;;;;;;16.33;10.30;;;3.10;1.00;;;;;;5095296;28;20415;-72
2022/12/03 09:53:14;;;;;;;18.53;11.70;;;3.10;1.00;;;;;;5094160;28;20738;-72
2022/12/03 09:55:42;;;;;;;18.67;11.43;;;3.10;1.00;;;;;;5094273;28;20452;-73
2022/12/03 09:58:13;;;;;;;23.07;12.93;;;3.10;1.00;;;;;;5095001;28;20895;-72
2022/12/03 10:00:41;;;;;;;14.40;11.23;;;3.20;1.00;;;;;;5095147;28;20423;-72
2022/12/03 10:03:11;;;;;;;22.67;13.97;;;3.20;1.00;;;;;;5094971;28;20434;-72
2022/12/03 10:05:37;;;;;;;25.37;12.70;;;3.10;1.00;;;;;;5091022;28;20497;-73
2022/12/03 10:08:06;;;;;;;18.40;11.57;;;3.20;1.00;;;;;;5091354;28;20983;-73
2022/12/03 10:10:34;;;;;;;23.20;10.23;;;3.20;1.00;;;;;;5093591;28;20874;-73
2022/12/03 10:13:00;;;;;;;23.43;12.87;;;3.20;1.00;;;;;;5089619;28;20455;-72
2022/12/03 10:15:26;;;;;;;23.30;12.03;;;3.20;1.00;;;;;;5072256;28;20456;-73
2022/12/03 10:17:53;;;;;;;18.67;10.50;;;3.20;1.00;;;;;;5075047;28;20429;-72
2022/12/03 10:20:22;;;;;;;22.20;11.40;;;3.30;1.00;;;;;;5094601;28;20614;-73
2022/12/03 10:22:48;;;;;;;20.97;13.97;;;3.40;1.00;;;;;;5092121;28;20502;-71
2022/12/03 10:25:19;;;;;;;15.80;11.20;;;3.50;1.00;;;;;;5073519;28;20962;-72
2022/12/03 10:28:02;;;;;;;17.97;13.00;;;3.60;1.00;;;;;;5073452;28;20499;-72
2022/12/03 10:30:28;;;;;;;20.87;12.07;;;3.60;1.00;;;;;;5072926;28;20487;-72
2022/12/03 10:32:56;;;;;;;19.87;11.13;;;3.70;1.00;;;;;;5074238;28;20401;-72
2022/12/03 10:35:40;;;;;;;22.17;13.07;;;3.80;1.00;;;;;;5087533;28;20510;-73
2022/12/03 10:38:21;;;;;;;22.70;12.13;;;3.90;1.00;;;;;;5074941;28;20406;-73
2022/12/03 10:40:47;;;;;;;22.93;12.10;;;4.00;1.00;;;;;;5094201;28;20411;-72
2022/12/03 10:43:24;;;;;;;17.90;11.33;;;4.00;1.00;;;;;;5090633;28;20490;-73
2022/12/03 10:46:01;;;;;;;27.17;15.63;;;4.00;1.00;;;;;;5073063;28;20406;-73
2022/12/03 10:48:27;;;;;;;24.50;12.57;;;4.00;1.00;;;;;;5076305;28;20422;-73
2022/12/03 10:51:09;;;;;;;20.00;12.37;;;4.00;1.00;;;;;;5094041;28;20428;-73
2022/12/03 10:53:37;;;;;;;21.97;12.57;;;3.90;1.00;;;;;;5090161;28;20167;-71
2022/12/03 10:56:05;;;;;;;20.70;11.23;;;4.00;1.00;;;;;;5073455;28;20490;-73
2022/12/03 10:58:35;;;;;;;16.13;11.50;;;3.90;1.00;;;;;;5074046;28;20418;-72
2022/12/03 11:01:19;;;;;;;20.67;12.57;;;3.80;1.00;;;;;;5040266;28;20938;-72
2022/12/03 11:03:45;;;;;;;21.40;12.23;;;3.70;1.00;;;;;;5071599;28;20418;-72
2022/12/03 11:06:17;;;;;;;20.80;11.10;;;3.60;1.00;;;;;;5072061;28;20502;-71
2022/12/03 11:08:45;;;;;;;19.97;12.53;;;3.60;1.00;;;;;;5075819;28;20894;-72
2022/12/03 11:11:18;;;;;;;22.30;13.20;;;3.50;1.00;;;;;;5093363;28;20414;-72
2022/12/03 11:13:46;;;;;;;23.63;12.93;;;3.50;1.00;;;;;;5090681;28;20896;-73
2022/12/03 11:16:13;;;;;;;20.67;11.83;;;3.50;1.00;;;;;;5073066;28;20442;-73
2022/12/03 11:18:39;;;;;;;22.47;12.50;;;3.50;1.00;;;;;;5073034;28;20864;-74
2022/12/03 11:21:11;;;;;;;21.03;12.37;;;3.50;1.00;;;;;;5093519;28;20404;-72
2022/12/03 11:23:43;;;;;;;15.93;11.60;;;3.60;1.00;;;;;;5092753;28;20174;-76
2022/12/03 11:26:10;;;;;;;22.63;12.20;;;3.60;1.00;;;;;;5071779;28;20556;-72
2022/12/03 11:28:49;;;;;;;21.50;13.77;;;3.70;1.00;;;;;;5073292;28;20400;-73
2022/12/03 11:31:37;;;;;;;17.77;11.80;;;3.60;1.00;;;;;;5073361;28;20410;-73
2022/12/03 11:34:21;;;;;;;17.90;12.13;;;3.60;1.00;;;;;;5073226;28;20882;-74
2022/12/03 11:37:08;;;;;;;22.10;11.23;;;3.70;1.00;;;;;;5093038;28;20514;-73
2022/12/03 11:39:49;;;;;;;19.73;12.00;;;3.70;1.00;;;;;;5087812;28;20411;-73
2022/12/03 11:42:27;;;;;;;21.53;12.60;;;3.90;1.00;;;;;;5072982;28;20808;-72
2022/12/03 11:45:05;;;;;;;29.07;14.37;;;3.90;1.00;;;;;;5077698;28;20414;-74
2022/12/03 11:47:40;;;;;;;20.17;11.37;;;4.00;1.00;;;;;;5093092;28;20896;-73
2022/12/03 11:50:37;;;;;;;22.27;11.67;;;4.00;1.00;;;;;;5084598;28;20485;-73
2022/12/03 11:53:17;;;;;;;20.30;12.27;;;4.00;1.00;;;;;;5072310;28;20816;-73
2022/12/03 11:55:52;;;;;;;15.27;11.17;;;3.90;1.00;;;;;;5083996;28;20546;-72
2022/12/03 11:58:28;;;;;;;18.87;13.20;;;3.80;1.00;;;;;;5093004;28;20399;-74
2022/12/03 12:00:59;;;;;;;19.10;12.37;;;3.90;1.00;;;;;;5077930;28;20416;-73
2022/12/03 12:03:25;;;;;;;24.03;14.40;;;4.10;1.00;;;;;;5071397;28;20424;-73
2022/12/03 12:06:08;;;;;;;19.17;13.23;;;4.20;1.00;;;;;;5084300;28;20419;-74
2022/12/03 12:08:37;;;;;;;24.70;13.77;;;4.20;1.00;;;;;;5091898;28;20183;-73
2022/12/03 12:11:14;;;;;;;24.87;13.90;;;4.30;1.00;;;;;;5077495;28;20525;-73
2022/12/03 12:13:40;;;;;;;19.37;12.63;;;4.20;1.00;;;;;;5071754;28;20406;-72
2022/12/03 12:16:07;;;;;;;22.70;14.47;;;4.20;1.00;;;;;;5086761;28;20468;-74
2022/12/03 12:18:39;;;;;;;19.30;12.37;;;4.20;1.00;;;;;;5092931;28;20213;-73
2022/12/03 12:21:37;;;;;;;22.23;12.33;;;4.30;1.00;;;;;;5078851;28;20409;-73
2022/12/03 12:24:32;;;;;;;18.97;13.87;;;4.30;1.00;;;;;;5075115;28;20408;-73
2022/12/03 12:27:01;;;;;;;21.60;12.97;;;4.30;1.00;;;;;;5083928;28;20438;-73
2022/12/03 12:29:27;;;;;;;17.17;11.13;;;4.30;1.00;;;;;;5094888;28;20408;-73
2022/12/03 12:32:07;;;;;;;25.33;12.00;;;4.40;1.00;;;;;;5096063;28;20461;-73
2022/12/03 12:34:37;;;;;;;19.90;11.47;;;4.40;1.00;;;;;;5074535;28;20674;-74
2022/12/03 12:37:07;;;;;;;15.60;10.93;;;4.50;1.00;;;;;;5075194;28;20848;-74
2022/12/03 12:39:34;;;;;;;23.60;12.90;;;4.50;1.00;;;;;;5075185;28;20505;-74
2022/12/03 12:42:02;;;;;;;24.90;13.80;;;4.50;1.00;;;;;;5077270;28;20476;-75
2022/12/03 12:44:28;;;;;;;23.13;13.97;;;4.50;1.00;;;;;;5094289;28;20423;-74
2022/12/03 12:46:54;;;;;;;20.63;12.80;;;4.50;1.00;;;;;;5093625;28;20438;-74
2022/12/03 12:49:25;;;;;;;20.33;11.47;;;4.40;1.00;;;;;;5076216;28;20184;-74
2022/12/03 12:51:51;;;;;;;16.23;11.50;;;4.40;1.00;;;;;;5076208;28;20495;-76
2022/12/03 12:54:17;;;;;;;19.93;11.97;;;4.20;1.00;;;;;;5094920;28;20466;-75
2022/12/03 12:56:46;;;;;;;24.77;13.80;;;4.20;1.00;;;;;;5096108;28;20430;-74
2022/12/03 12:59:13;;;;;;;20.03;12.40;;;4.10;1.00;;;;;;5076013;28;20816;-73
2022/12/03 13:01:42;;;;;;;18.30;11.63;;;4.10;1.00;;;;;;5076072;28;20397;-75
2022/12/03 13:04:20;;;;;;;16.40;12.60;;;4.10;1.00;;;;;;5091764;28;20470;-75
2022/12/03 13:06:48;;;;;;;21.83;11.47;;;4.00;1.00;;;;;;5076248;28;20459;-74
2022/12/03 13:09:24;;;;;;;19.83;12.30;;;3.90;1.00;;;;;;5075808;28;20463;-73